Terminal Aerodrome Forecast
Issued by NWS

Home | Current Version | Previous Version | Text Only | Print | Product List | Glossary On
Versions: 1 2 3 4 5 6 7 8 9 10 11 12 13 14 15 16 17 18 19 20 21 22 23 24 25
836
FTUS41 KCAR 290147 AAB
TAFBHB
TAF AMD
KBHB 290147Z 2902/2924 VRB03KT 2SM -RA OVC004
     FM290300 VRB03KT P6SM OVC008
     FM291300 35006KT P6SM BKN012
     FM291900 34008KT P6SM BKN025=

USA.gov is the U.S. government's official web portal to all federal, state and local government web resources and services.